createdAt,value
2022-10-18T00:01:10.836Z,10.65
2022-10-18T00:03:39.810Z,10.65
2022-10-18T00:06:09.316Z,10.69
2022-10-18T00:08:38.710Z,10.82
2022-10-18T00:11:08.758Z,10.70
2022-10-18T00:13:38.444Z,10.62
2022-10-18T00:16:11.290Z,10.60
2022-10-18T00:18:40.035Z,10.62
2022-10-18T00:21:13.351Z,10.69
2022-10-18T00:23:41.778Z,10.69
2022-10-18T00:26:13.316Z,10.60
2022-10-18T00:28:42.111Z,10.56
2022-10-18T00:31:12.665Z,10.44
2022-10-18T00:33:41.696Z,10.38
2022-10-18T00:36:10.354Z,10.29
2022-10-18T00:38:39.367Z,10.33
2022-10-18T00:41:09.809Z,10.28
2022-10-18T00:43:58.492Z,10.35
2022-10-18T00:46:28.523Z,10.28
2022-10-18T00:49:00.301Z,10.18
2022-10-18T00:51:32.454Z,10.20
2022-10-18T00:54:01.010Z,10.14
2022-10-18T00:56:31.753Z,10.09
2022-10-18T00:59:03.899Z,10.06
2022-10-18T01:01:32.379Z,10.11
2022-10-18T01:04:01.082Z,10.00
2022-10-18T01:06:30.274Z,10.12
2022-10-18T01:09:10.937Z,10.16
2022-10-18T01:11:56.924Z,10.19
2022-10-18T01:14:39.593Z,10.09
2022-10-18T01:17:13.302Z,10.09
2022-10-18T01:20:21.888Z,10.30
2022-10-18T01:22:52.863Z,10.39
2022-10-18T01:25:31.634Z,10.32
2022-10-18T01:28:08.511Z,10.17
2022-10-18T01:30:58.402Z,10.16
2022-10-18T01:33:35.186Z,10.06
2022-10-18T01:36:07.358Z,10.06
2022-10-18T01:38:36.280Z,10.05
2022-10-18T01:41:07.413Z,9.95
2022-10-18T01:43:38.565Z,9.85
2022-10-18T01:46:10.048Z,9.73
2022-10-18T01:48:39.044Z,9.63
2022-10-18T01:51:08.698Z,9.58
2022-10-18T01:53:37.169Z,9.66
2022-10-18T01:56:22.154Z,9.56
2022-10-18T01:58:57.938Z,9.54
2022-10-18T02:01:35.165Z,9.66
2022-10-18T02:04:11.207Z,9.68
2022-10-18T02:06:42.832Z,9.65
2022-10-18T02:09:15.608Z,9.79
2022-10-18T02:11:44.946Z,9.81
2022-10-18T02:14:17.487Z,9.89
2022-10-18T02:16:50.933Z,9.71
2022-10-18T02:19:27.685Z,9.74
2022-10-18T02:21:57.218Z,9.83
2022-10-18T02:24:28.891Z,9.65
2022-10-18T02:26:57.322Z,9.67
2022-10-18T02:29:25.728Z,9.67
2022-10-18T02:32:00.691Z,9.70
2022-10-18T02:34:32.649Z,9.55
2022-10-18T02:37:02.787Z,9.48
2022-10-18T02:39:32.706Z,9.46
2022-10-18T02:42:01.231Z,9.41
2022-10-18T02:44:29.556Z,9.31
2022-10-18T02:46:59.360Z,9.31
2022-10-18T02:49:27.771Z,9.22
2022-10-18T02:51:56.088Z,9.16
2022-10-18T02:54:24.601Z,9.09
2022-10-18T02:56:53.014Z,9.10
2022-10-18T02:59:21.402Z,9.04
2022-10-18T03:01:49.756Z,9.12
2022-10-18T03:04:19.727Z,9.16
2022-10-18T03:06:48.156Z,9.20
2022-10-18T03:09:16.529Z,9.28
2022-10-18T03:11:44.983Z,9.26
2022-10-18T03:14:13.337Z,9.22
2022-10-18T03:16:41.753Z,9.24
2022-10-18T03:19:10.174Z,9.20
2022-10-18T03:21:39.834Z,9.32
2022-10-18T03:24:08.349Z,9.39
2022-10-18T03:26:36.622Z,9.28
2022-10-18T03:29:05.045Z,9.18
2022-10-18T03:31:33.862Z,9.02
2022-10-18T03:34:04.598Z,8.97
2022-10-18T03:36:33.952Z,8.91
2022-10-18T03:39:03.684Z,8.92
2022-10-18T03:41:32.317Z,8.92
2022-10-18T03:44:00.593Z,8.96
2022-10-18T03:46:28.915Z,9.04
2022-10-18T03:48:57.173Z,8.93
2022-10-18T03:51:25.494Z,8.88
2022-10-18T03:53:53.740Z,9.02
2022-10-18T03:56:23.986Z,8.94
2022-10-18T03:58:52.256Z,8.97
2022-10-18T04:01:20.585Z,9.07
2022-10-18T04:03:48.934Z,9.14
2022-10-18T04:06:17.441Z,9.18
2022-10-18T04:08:45.734Z,9.08
2022-10-18T04:11:14.026Z,8.99
2022-10-18T04:13:43.701Z,8.90
2022-10-18T04:16:12.099Z,8.82
2022-10-18T04:18:40.427Z,8.75
2022-10-18T04:21:08.747Z,8.72
2022-10-18T04:23:38.775Z,8.68
2022-10-18T04:26:07.666Z,8.70
2022-10-18T04:28:40.354Z,8.76
2022-10-18T04:31:10.438Z,8.81
2022-10-18T04:33:38.981Z,8.81
2022-10-18T04:36:07.735Z,8.83
2022-10-18T04:38:36.083Z,8.84
2022-10-18T04:41:04.688Z,8.83
2022-10-18T04:43:33.052Z,8.84
2022-10-18T04:46:01.712Z,8.81
2022-10-18T04:48:31.473Z,8.70
2022-10-18T04:50:59.929Z,8.55
2022-10-18T04:53:28.371Z,8.48
2022-10-18T04:55:56.753Z,8.50
2022-10-18T04:58:25.615Z,8.51
2022-10-18T05:00:54.154Z,8.43
2022-10-18T05:03:22.568Z,8.38
2022-10-18T05:06:08.037Z,8.36
2022-10-18T05:08:37.071Z,8.30
2022-10-18T05:11:06.998Z,8.29
2022-10-18T05:13:39.301Z,8.29
2022-10-18T05:16:11.080Z,8.34
2022-10-18T05:18:39.695Z,8.32
2022-10-18T05:21:09.615Z,8.33
2022-10-18T05:23:37.989Z,8.32
2022-10-18T05:26:07.887Z,8.34
2022-10-18T05:28:40.545Z,8.35
2022-10-18T05:31:11.412Z,8.36
2022-10-18T05:33:39.778Z,8.36
2022-10-18T05:36:10.411Z,8.36
2022-10-18T05:38:45.624Z,8.37
2022-10-18T05:41:17.332Z,8.37
2022-10-18T05:43:45.655Z,8.38
2022-10-18T05:46:15.661Z,8.41
2022-10-18T05:48:51.821Z,8.54
2022-10-18T05:51:21.804Z,8.54
2022-10-18T05:53:50.314Z,8.55
2022-10-18T05:56:18.630Z,8.52
2022-10-18T05:58:51.935Z,8.52
2022-10-18T06:01:20.740Z,8.56
2022-10-18T06:03:49.378Z,8.63
2022-10-18T06:06:18.021Z,8.69
2022-10-18T06:08:50.644Z,8.74
2022-10-18T06:11:20.740Z,8.78
2022-10-18T06:13:50.467Z,8.81
2022-10-18T06:16:20.669Z,8.88
2022-10-18T06:18:49.937Z,8.96
2022-10-18T06:21:21.333Z,9.05
2022-10-18T06:23:51.561Z,9.13
2022-10-18T06:26:21.388Z,9.20
2022-10-18T06:28:49.883Z,9.40
2022-10-18T06:31:18.718Z,9.46
2022-10-18T06:33:47.131Z,9.48
2022-10-18T06:36:17.573Z,9.44
2022-10-18T06:38:46.001Z,9.50
2022-10-18T06:41:16.031Z,9.44
2022-10-18T06:43:44.897Z,9.63
2022-10-18T06:46:13.243Z,9.67
2022-10-18T06:48:41.642Z,9.75
2022-10-18T06:51:11.030Z,9.85
2022-10-18T06:53:44.617Z,9.95
2022-10-18T06:56:28.616Z,10.00
2022-10-18T07:01:25.456Z,10.17
2022-10-18T07:03:54.636Z,10.20
2022-10-18T07:06:23.566Z,10.29
2022-10-18T07:08:53.030Z,10.38
2022-10-18T07:11:24.186Z,10.44
2022-10-18T07:13:55.268Z,10.52
2022-10-18T07:16:23.577Z,10.52
2022-10-18T07:18:52.816Z,10.62
2022-10-18T07:21:22.484Z,10.65
2022-10-18T07:23:51.566Z,10.71
2022-10-18T07:26:21.694Z,10.94
2022-10-18T07:28:55.365Z,11.03
2022-10-18T07:31:24.174Z,11.10
2022-10-18T07:33:52.766Z,11.17
2022-10-18T07:36:22.358Z,11.22
2022-10-18T07:38:51.994Z,11.32
2022-10-18T07:41:20.925Z,11.52
2022-10-18T07:43:50.909Z,11.70
2022-10-18T07:46:24.591Z,11.83
2022-10-18T07:48:52.953Z,11.99
2022-10-18T07:51:21.835Z,12.17
2022-10-18T07:53:50.440Z,12.43
2022-10-18T07:56:21.278Z,12.69
2022-10-18T07:58:52.515Z,12.91
2022-10-18T08:01:23.671Z,12.96
2022-10-18T08:03:52.660Z,13.24
2022-10-18T08:06:22.057Z,13.71
2022-10-18T08:08:50.367Z,13.62
2022-10-18T08:11:20.311Z,13.86
2022-10-18T08:13:48.703Z,14.16
2022-10-18T08:16:18.757Z,14.32
2022-10-18T08:18:49.237Z,14.42
2022-10-18T08:21:18.972Z,14.53
2022-10-18T08:23:47.392Z,14.77
2022-10-18T08:26:17.653Z,15.02
2022-10-18T08:28:53.834Z,15.28
2022-10-18T08:31:32.185Z,15.27
2022-10-18T08:34:01.891Z,15.22
2022-10-18T08:36:30.399Z,15.00
2022-10-18T08:38:58.717Z,15.00
2022-10-18T08:41:47.602Z,15.31
2022-10-18T08:44:20.690Z,15.64
2022-10-18T08:46:50.917Z,16.01
2022-10-18T08:49:26.779Z,16.43
2022-10-18T08:51:55.243Z,16.60
2022-10-18T08:54:27.636Z,16.58
2022-10-18T08:57:00.847Z,17.00
2022-10-18T08:59:35.659Z,17.61
2022-10-18T09:02:09.914Z,17.83
2022-10-18T09:04:47.704Z,17.89
2022-10-18T09:07:41.295Z,17.77
2022-10-18T09:10:20.877Z,17.76
2022-10-18T09:13:06.312Z,18.33
2022-10-18T09:15:41.700Z,18.47
2022-10-18T09:18:18.998Z,18.33
2022-10-18T09:20:54.754Z,18.86
2022-10-18T09:23:24.319Z,18.89
2022-10-18T09:25:57.593Z,18.80
2022-10-18T09:28:34.244Z,19.50
2022-10-18T09:31:08.517Z,19.41
2022-10-18T09:33:46.351Z,19.78
2022-10-18T09:36:19.921Z,20.20
2022-10-18T09:38:50.952Z,20.55
2022-10-18T09:41:24.360Z,20.53
2022-10-18T09:43:57.212Z,20.35
2022-10-18T09:46:29.334Z,20.56
2022-10-18T09:49:01.530Z,20.44
2022-10-18T09:51:35.578Z,20.75
2022-10-18T09:54:10.284Z,20.94
2022-10-18T09:56:42.165Z,21.11
2022-10-18T09:59:37.225Z,21.06
2022-10-18T10:02:06.266Z,20.42
2022-10-18T10:04:34.611Z,21.09
2022-10-18T10:07:08.767Z,20.96
2022-10-18T10:09:42.064Z,21.17
2022-10-18T10:12:27.375Z,21.87
2022-10-18T10:14:57.304Z,22.20
2022-10-18T10:17:27.629Z,21.34
2022-10-18T10:20:02.195Z,21.88
2022-10-18T10:22:36.733Z,21.74
2022-10-18T10:25:06.302Z,22.23
2022-10-18T10:27:41.141Z,22.49
2022-10-18T10:30:24.013Z,22.42
2022-10-18T10:32:53.721Z,22.02
2022-10-18T10:35:41.441Z,22.73
2022-10-18T10:38:26.055Z,23.34
2022-10-18T10:40:54.783Z,23.71
2022-10-18T10:43:38.174Z,23.58
2022-10-18T10:46:09.228Z,23.49
2022-10-18T10:48:46.426Z,23.68
2022-10-18T10:51:15.161Z,23.88
2022-10-18T10:53:51.136Z,23.68
2022-10-18T10:56:24.524Z,23.09
2022-10-18T10:58:53.740Z,23.45
2022-10-18T11:01:28.281Z,23.66
2022-10-18T11:03:59.381Z,24.06
2022-10-18T11:06:55.351Z,24.20
2022-10-18T11:09:29.346Z,24.60
2022-10-18T11:12:04.517Z,24.17
2022-10-18T11:14:38.411Z,24.03
2022-10-18T11:17:13.450Z,24.30
2022-10-18T11:20:01.396Z,24.26
2022-10-18T11:22:34.174Z,23.95
2022-10-18T11:25:05.484Z,24.21
2022-10-18T11:27:38.058Z,24.46
2022-10-18T11:30:24.434Z,24.79
2022-10-18T11:33:01.610Z,25.09
2022-10-18T11:35:38.897Z,25.80
2022-10-18T11:38:17.080Z,25.44
2022-10-18T11:41:28.734Z,25.00
2022-10-18T11:44:03.542Z,25.37
2022-10-18T11:46:42.302Z,25.94
2022-10-18T11:49:20.747Z,25.75
2022-10-18T11:52:08.345Z,26.01
2022-10-18T11:54:57.844Z,25.57
2022-10-18T11:57:42.009Z,26.23
2022-10-18T12:00:24.247Z,25.87
2022-10-18T12:03:07.828Z,25.88
2022-10-18T12:05:37.993Z,26.11
2022-10-18T12:08:10.200Z,26.18
2022-10-18T12:10:53.123Z,26.00
2022-10-18T12:13:40.096Z,26.11
2022-10-18T12:16:10.043Z,26.03
2022-10-18T12:18:55.493Z,25.80
2022-10-18T12:21:26.452Z,26.28
2022-10-18T12:23:58.343Z,26.38
2022-10-18T12:26:28.327Z,25.89
2022-10-18T12:29:18.679Z,25.20
2022-10-18T12:31:49.751Z,25.94
2022-10-18T12:34:34.604Z,25.99
2022-10-18T12:37:31.439Z,26.01
2022-10-18T12:40:10.554Z,26.31
2022-10-18T12:42:43.378Z,25.90
2022-10-18T12:45:26.489Z,26.22
2022-10-18T12:47:55.296Z,26.10
2022-10-18T12:50:31.417Z,26.70
2022-10-18T12:53:05.307Z,26.64
2022-10-18T12:55:36.887Z,26.67
2022-10-18T12:58:22.466Z,26.38
2022-10-18T13:01:01.916Z,26.08
2022-10-18T13:03:53.061Z,26.66
2022-10-18T13:06:22.170Z,26.96
2022-10-18T13:09:24.469Z,27.12
2022-10-18T13:11:53.120Z,26.19
2022-10-18T13:14:44.101Z,26.99
2022-10-18T13:17:28.732Z,26.78
2022-10-18T13:20:24.570Z,26.70
2022-10-18T13:23:00.843Z,26.14
2022-10-18T13:25:38.081Z,26.59
2022-10-18T13:28:20.416Z,25.79
2022-10-18T13:30:52.785Z,26.37
2022-10-18T13:33:36.165Z,27.12
2022-10-18T13:36:06.246Z,26.84
2022-10-18T13:38:45.917Z,27.35
2022-10-18T13:41:17.370Z,27.35
2022-10-18T13:44:11.651Z,26.80
2022-10-18T13:47:19.431Z,27.35
2022-10-18T13:50:34.434Z,27.06
2022-10-18T13:53:38.088Z,27.53
2022-10-18T13:56:31.497Z,27.02
2022-10-18T13:59:14.940Z,26.95
2022-10-18T14:01:54.232Z,26.95
2022-10-18T14:05:10.880Z,26.44
2022-10-18T14:07:45.992Z,25.87
2022-10-18T14:10:33.350Z,25.49
2022-10-18T14:13:20.979Z,25.64
2022-10-18T14:15:51.810Z,25.36
2022-10-18T14:18:24.612Z,24.59
2022-10-18T14:21:12.943Z,24.22
2022-10-18T14:23:44.677Z,23.80
2022-10-18T14:26:16.387Z,23.41
2022-10-18T14:29:00.804Z,22.86
2022-10-18T14:31:29.635Z,22.83
2022-10-18T14:33:59.289Z,22.67
2022-10-18T14:36:28.925Z,22.63
2022-10-18T14:38:58.709Z,22.33
2022-10-18T14:41:29.149Z,22.35
2022-10-18T14:44:19.473Z,22.12
2022-10-18T14:46:51.162Z,22.06
2022-10-18T14:49:19.967Z,21.90
2022-10-18T14:51:51.123Z,21.64
2022-10-18T14:54:32.526Z,21.54
2022-10-18T14:57:01.578Z,21.30
2022-10-18T14:59:33.511Z,21.34
2022-10-18T15:02:05.192Z,21.28
2022-10-18T15:04:33.836Z,21.27
2022-10-18T15:07:03.222Z,21.15
2022-10-18T15:09:32.048Z,21.14
2022-10-18T15:12:00.780Z,20.98
2022-10-18T15:14:31.188Z,20.89
2022-10-18T15:17:03.711Z,20.73
2022-10-18T15:19:34.573Z,20.76
2022-10-18T15:25:14.685Z,20.59
2022-10-18T15:27:45.407Z,20.46
2022-10-18T15:30:22.403Z,20.37
2022-10-18T15:32:53.107Z,20.39
2022-10-18T15:35:26.505Z,20.34
2022-10-18T15:37:56.504Z,20.34
2022-10-18T15:40:48.425Z,20.19
2022-10-18T15:43:40.304Z,20.16
2022-10-18T15:46:31.248Z,19.96
2022-10-18T15:49:35.197Z,19.71
2022-10-18T15:52:37.836Z,19.60
2022-10-18T15:55:48.431Z,19.44
2022-10-18T15:58:22.720Z,19.27
2022-10-18T16:00:52.308Z,19.15
2022-10-18T16:03:24.085Z,19.01
2022-10-18T16:05:55.580Z,18.83
2022-10-18T16:08:25.336Z,18.69
2022-10-18T16:10:54.140Z,18.57
2022-10-18T16:13:22.710Z,18.47
2022-10-18T16:15:51.001Z,18.33
2022-10-18T16:18:21.469Z,18.21
2022-10-18T16:20:49.993Z,18.08
2022-10-18T16:23:20.665Z,17.94
2022-10-18T16:25:49.485Z,17.80
2022-10-18T16:28:19.787Z,17.72
2022-10-18T16:30:54.739Z,17.57
2022-10-18T16:33:24.905Z,17.47
2022-10-18T16:35:53.869Z,17.56
2022-10-18T16:38:31.118Z,17.74
2022-10-18T16:41:02.720Z,17.50
2022-10-18T16:43:31.249Z,17.13
2022-10-18T16:45:59.554Z,17.10
2022-10-18T16:48:30.604Z,16.97
2022-10-18T16:50:59.241Z,16.77
2022-10-18T16:53:28.214Z,16.60
2022-10-18T16:55:58.182Z,16.74
2022-10-18T16:58:27.690Z,16.56
2022-10-18T17:00:56.766Z,16.60
2022-10-18T17:03:26.255Z,16.41
2022-10-18T17:05:56.989Z,16.39
2022-10-18T17:08:27.890Z,16.28
2022-10-18T17:10:59.726Z,16.14
2022-10-18T17:13:29.193Z,16.13
2022-10-18T17:15:59.471Z,16.41
2022-10-18T17:18:31.544Z,16.60
2022-10-18T17:21:03.689Z,16.68
2022-10-18T17:23:34.355Z,16.65
2022-10-18T17:26:26.326Z,16.39
2022-10-18T17:28:55.047Z,16.04
2022-10-18T17:31:25.342Z,15.80
2022-10-18T17:33:56.742Z,15.85
2022-10-18T17:36:29.374Z,15.65
2022-10-18T17:38:59.012Z,15.67
2022-10-18T17:41:31.103Z,16.00
2022-10-18T17:44:01.718Z,15.99
2022-10-18T17:46:31.811Z,15.91
2022-10-18T17:49:02.717Z,15.82
2022-10-18T17:51:37.122Z,15.45
2022-10-18T17:54:13.949Z,15.60
2022-10-18T17:56:47.452Z,15.45
2022-10-18T17:59:18.945Z,15.52
2022-10-18T18:01:52.959Z,15.55
2022-10-18T18:04:26.357Z,15.27
2022-10-18T18:07:07.943Z,15.32
2022-10-18T18:09:37.215Z,15.32
2022-10-18T18:12:07.273Z,15.21
2022-10-18T18:14:38.168Z,15.21
2022-10-18T18:17:12.191Z,15.14
2022-10-18T18:19:44.402Z,15.19
2022-10-18T18:22:19.001Z,15.40
2022-10-18T18:24:52.955Z,15.26
2022-10-18T18:27:26.329Z,15.11
2022-10-18T18:29:58.994Z,14.96
2022-10-18T18:32:31.735Z,14.91
2022-10-18T18:35:05.644Z,15.03
2022-10-18T18:37:38.234Z,15.12
2022-10-18T18:40:16.914Z,14.99
2022-10-18T18:43:07.337Z,14.89
2022-10-18T18:45:43.966Z,15.06
2022-10-18T18:48:20.163Z,14.96
2022-10-18T18:50:53.364Z,15.01
2022-10-18T18:53:29.475Z,15.02
2022-10-18T18:56:08.439Z,14.81
2022-10-18T18:58:43.585Z,14.59
2022-10-18T19:01:17.779Z,14.69
2022-10-18T19:03:55.755Z,14.38
2022-10-18T19:06:34.249Z,14.27
2022-10-18T19:09:14.064Z,14.15
2022-10-18T19:11:45.114Z,14.16
2022-10-18T19:14:16.823Z,14.21
2022-10-18T19:16:50.063Z,14.04
2022-10-18T19:19:21.780Z,13.87
2022-10-18T19:21:53.038Z,13.79
2022-10-18T19:24:26.480Z,13.84
2022-10-18T19:27:03.351Z,13.98
2022-10-18T19:29:37.936Z,13.89
2022-10-18T19:32:12.628Z,13.96
2022-10-18T19:34:46.708Z,13.81
2022-10-18T19:37:18.320Z,13.72
2022-10-18T19:39:50.020Z,13.66
2022-10-18T19:42:24.118Z,13.62
2022-10-18T19:44:58.410Z,13.67
2022-10-18T19:47:27.940Z,13.67
2022-10-18T19:49:58.185Z,13.59
2022-10-18T19:52:32.577Z,13.53
2022-10-18T19:55:11.058Z,13.51
2022-10-18T19:57:44.014Z,13.38
2022-10-18T20:00:19.314Z,13.68
2022-10-18T20:02:51.887Z,13.71
2022-10-18T20:05:21.623Z,13.67
2022-10-18T20:07:51.834Z,13.70
2022-10-18T20:10:22.432Z,13.71
2022-10-18T20:12:51.050Z,13.50
2022-10-18T20:15:20.267Z,13.37
2022-10-18T20:20:18.021Z,13.24
2022-10-18T20:22:46.725Z,13.13
2022-10-18T20:25:15.494Z,13.09
2022-10-18T20:27:45.540Z,13.07
2022-10-18T20:30:14.133Z,13.14
2022-10-18T20:32:42.897Z,13.19
2022-10-18T20:35:11.506Z,13.06
2022-10-18T20:37:39.918Z,13.05
2022-10-18T20:40:10.120Z,13.11
2022-10-18T20:42:38.760Z,13.02
2022-10-18T20:45:09.667Z,12.97
2022-10-18T20:47:38.774Z,13.00
2022-10-18T20:50:07.691Z,13.13
2022-10-18T20:52:36.727Z,13.14
2022-10-18T20:55:05.914Z,13.20
2022-10-18T20:57:36.519Z,13.07
2022-10-18T21:00:07.562Z,12.96
2022-10-18T21:02:37.415Z,12.81
2022-10-18T21:05:06.372Z,12.91
2022-10-18T21:07:35.159Z,12.91
2022-10-18T21:10:03.743Z,12.79
2022-10-18T21:12:32.431Z,12.76
2022-10-18T21:15:00.834Z,12.62
2022-10-18T21:17:29.200Z,12.56
2022-10-18T21:19:59.110Z,12.53
2022-10-18T21:22:27.438Z,12.45
2022-10-18T21:24:55.873Z,12.43
2022-10-18T21:27:25.633Z,12.35
2022-10-18T21:29:53.981Z,12.35
2022-10-18T21:32:22.349Z,12.35
2022-10-18T21:34:50.804Z,12.37
2022-10-18T21:37:20.957Z,12.30
2022-10-18T21:39:50.408Z,12.22
2022-10-18T21:42:18.867Z,12.30
2022-10-18T21:44:47.264Z,12.37
2022-10-18T21:47:16.231Z,12.46
2022-10-18T21:49:44.718Z,12.36
2022-10-18T21:52:13.209Z,12.30
2022-10-18T21:54:42.958Z,12.26
2022-10-18T21:57:11.469Z,12.27
2022-10-18T21:59:40.147Z,12.27
2022-10-18T22:02:08.444Z,12.21
2022-10-18T22:04:37.006Z,12.08
2022-10-18T22:07:05.810Z,12.14
2022-10-18T22:09:34.359Z,12.23
2022-10-18T22:12:04.942Z,12.26
2022-10-18T22:14:33.249Z,12.16
2022-10-18T22:17:01.767Z,12.26
2022-10-18T22:19:30.243Z,12.45
2022-10-18T22:21:58.609Z,12.41
2022-10-18T22:24:26.983Z,12.33
2022-10-18T22:26:56.652Z,12.18
2022-10-18T22:29:26.364Z,12.14
2022-10-18T22:31:56.124Z,12.07
2022-10-18T22:34:27.724Z,12.07
2022-10-18T22:36:56.510Z,12.24
2022-10-18T22:39:25.251Z,12.22
2022-10-18T22:41:56.391Z,12.08
2022-10-18T22:44:26.144Z,12.25
2022-10-18T22:46:54.531Z,12.26
2022-10-18T22:49:22.896Z,12.38
2022-10-18T22:51:51.134Z,12.53
2022-10-18T22:54:19.671Z,12.45
2022-10-18T22:56:48.026Z,12.42
2022-10-18T22:59:16.289Z,12.12
2022-10-18T23:01:45.968Z,11.99
2022-10-18T23:04:14.251Z,11.98
2022-10-18T23:06:42.933Z,11.84
2022-10-18T23:09:12.422Z,11.83
2022-10-18T23:11:40.803Z,11.89
2022-10-18T23:14:09.245Z,11.78
2022-10-18T23:16:38.604Z,11.93
2022-10-18T23:19:08.323Z,12.04
2022-10-18T23:21:36.694Z,11.96
2022-10-18T23:24:05.323Z,11.85
2022-10-18T23:26:33.827Z,11.72
2022-10-18T23:29:02.330Z,11.69
2022-10-18T23:31:32.304Z,11.74
2022-10-18T23:34:02.224Z,12.28
2022-10-18T23:36:33.222Z,12.83
2022-10-18T23:39:01.576Z,12.69
2022-10-18T23:41:29.972Z,12.80
2022-10-18T23:43:58.458Z,12.70
2022-10-18T23:46:27.810Z,12.54
2022-10-18T23:48:56.575Z,12.51
2022-10-18T23:51:24.933Z,12.44
2022-10-18T23:53:54.758Z,12.28
2022-10-18T23:56:23.163Z,12.28
2022-10-18T23:58:51.493Z,12.26
